sensor_id;sensor_type;location;lat;lon;timestamp;P1;durP1;ratioP1;P2;durP2;ratioP2
73100;SDS011;61288;53.446;-2.266;2023-05-10T00:01:20;17.77;;;3.75;;
73100;SDS011;61288;53.446;-2.266;2023-05-10T00:03:46;14.05;;;3.22;;
73100;SDS011;61288;53.446;-2.266;2023-05-10T00:06:12;16.27;;;3.97;;
73100;SDS011;61288;53.446;-2.266;2023-05-10T00:08:37;13.82;;;3.70;;
73100;SDS011;61288;53.446;-2.266;2023-05-10T00:11:03;11.02;;;3.63;;
73100;SDS011;61288;53.446;-2.266;2023-05-10T00:13:28;14.25;;;3.33;;
73100;SDS011;61288;53.446;-2.266;2023-05-10T00:15:54;15.30;;;3.70;;
73100;SDS011;61288;53.446;-2.266;2023-05-10T00:18:19;12.30;;;3.38;;
73100;SDS011;61288;53.446;-2.266;2023-05-10T00:20:45;10.50;;;2.92;;
73100;SDS011;61288;53.446;-2.266;2023-05-10T00:23:13;15.45;;;3.03;;
73100;SDS011;61288;53.446;-2.266;2023-05-10T00:25:39;10.70;;;3.45;;
73100;SDS011;61288;53.446;-2.266;2023-05-10T00:28:05;15.15;;;3.33;;
73100;SDS011;61288;53.446;-2.266;2023-05-10T00:30:30;12.45;;;3.53;;
73100;SDS011;61288;53.446;-2.266;2023-05-10T00:32:56;12.00;;;3.10;;
73100;SDS011;61288;53.446;-2.266;2023-05-10T00:35:21;12.45;;;3.47;;
73100;SDS011;61288;53.446;-2.266;2023-05-10T00:37:47;10.40;;;3.22;;
73100;SDS011;61288;53.446;-2.266;2023-05-10T00:40:13;10.98;;;3.38;;
73100;SDS011;61288;53.446;-2.266;2023-05-10T00:42:38;10.88;;;3.22;;
73100;SDS011;61288;53.446;-2.266;2023-05-10T00:45:04;10.35;;;3.03;;
73100;SDS011;61288;53.446;-2.266;2023-05-10T00:47:31;14.13;;;3.65;;
73100;SDS011;61288;53.446;-2.266;2023-05-10T00:49:57;10.88;;;2.92;;
73100;SDS011;61288;53.446;-2.266;2023-05-10T00:52:22;12.45;;;3.38;;
73100;SDS011;61288;53.446;-2.266;2023-05-10T00:54:49;12.35;;;3.53;;
73100;SDS011;61288;53.446;-2.266;2023-05-10T00:57:17;12.27;;;3.15;;
73100;SDS011;61288;53.446;-2.266;2023-05-10T00:59:46;14.52;;;3.53;;
73100;SDS011;61288;53.446;-2.266;2023-05-10T01:02:13;10.45;;;3.00;;
73100;SDS011;61288;53.446;-2.266;2023-05-10T01:04:38;14.82;;;3.67;;
73100;SDS011;61288;53.446;-2.266;2023-05-10T01:07:04;12.57;;;3.15;;
73100;SDS011;61288;53.446;-2.266;2023-05-10T01:09:30;15.13;;;3.55;;
73100;SDS011;61288;53.446;-2.266;2023-05-10T01:11:57;12.90;;;3.30;;
73100;SDS011;61288;53.446;-2.266;2023-05-10T01:14:22;8.55;;;2.45;;
73100;SDS011;61288;53.446;-2.266;2023-05-10T01:16:48;11.90;;;3.40;;
73100;SDS011;61288;53.446;-2.266;2023-05-10T01:19:28;10.95;;;3.08;;
73100;SDS011;61288;53.446;-2.266;2023-05-10T01:22:03;11.25;;;3.50;;
73100;SDS011;61288;53.446;-2.266;2023-05-10T01:27:17;10.85;;;3.17;;
73100;SDS011;61288;53.446;-2.266;2023-05-10T01:35:17;10.95;;;3.33;;
73100;SDS011;61288;53.446;-2.266;2023-05-10T01:40:40;12.70;;;3.33;;
73100;SDS011;61288;53.446;-2.266;2023-05-10T01:43:26;11.57;;;2.97;;
73100;SDS011;61288;53.446;-2.266;2023-05-10T01:46:00;13.68;;;3.60;;
73100;SDS011;61288;53.446;-2.266;2023-05-10T01:48:36;12.20;;;2.63;;
73100;SDS011;61288;53.446;-2.266;2023-05-10T01:51:11;12.38;;;2.95;;
73100;SDS011;61288;53.446;-2.266;2023-05-10T01:53:40;10.32;;;3.13;;
73100;SDS011;61288;53.446;-2.266;2023-05-10T01:56:08;12.05;;;3.13;;
73100;SDS011;61288;53.446;-2.266;2023-05-10T01:58:36;10.93;;;3.00;;
73100;SDS011;61288;53.446;-2.266;2023-05-10T02:01:05;11.10;;;3.28;;
73100;SDS011;61288;53.446;-2.266;2023-05-10T02:03:33;15.02;;;3.58;;
73100;SDS011;61288;53.446;-2.266;2023-05-10T02:06:01;14.93;;;3.40;;
73100;SDS011;61288;53.446;-2.266;2023-05-10T02:08:28;13.70;;;3.58;;
73100;SDS011;61288;53.446;-2.266;2023-05-10T02:10:55;12.20;;;3.55;;
73100;SDS011;61288;53.446;-2.266;2023-05-10T02:13:23;12.43;;;3.15;;
73100;SDS011;61288;53.446;-2.266;2023-05-10T02:15:51;14.38;;;3.63;;
73100;SDS011;61288;53.446;-2.266;2023-05-10T02:18:20;10.75;;;3.45;;
73100;SDS011;61288;53.446;-2.266;2023-05-10T02:20:47;13.75;;;3.13;;
73100;SDS011;61288;53.446;-2.266;2023-05-10T02:23:13;13.68;;;3.40;;
73100;SDS011;61288;53.446;-2.266;2023-05-10T02:25:41;12.25;;;3.05;;
73100;SDS011;61288;53.446;-2.266;2023-05-10T02:28:08;11.77;;;3.28;;
73100;SDS011;61288;53.446;-2.266;2023-05-10T02:30:37;11.48;;;3.33;;
73100;SDS011;61288;53.446;-2.266;2023-05-10T02:33:03;16.75;;;3.80;;
73100;SDS011;61288;53.446;-2.266;2023-05-10T02:35:30;12.65;;;3.25;;
73100;SDS011;61288;53.446;-2.266;2023-05-10T02:37:58;13.70;;;3.50;;
73100;SDS011;61288;53.446;-2.266;2023-05-10T02:40:26;12.18;;;3.30;;
73100;SDS011;61288;53.446;-2.266;2023-05-10T02:42:54;11.65;;;3.10;;
73100;SDS011;61288;53.446;-2.266;2023-05-10T02:45:22;15.50;;;3.00;;
73100;SDS011;61288;53.446;-2.266;2023-05-10T02:47:51;12.48;;;3.20;;
73100;SDS011;61288;53.446;-2.266;2023-05-10T02:50:17;10.10;;;3.17;;
73100;SDS011;61288;53.446;-2.266;2023-05-10T02:52:44;14.30;;;2.97;;
73100;SDS011;61288;53.446;-2.266;2023-05-10T02:55:14;12.02;;;3.08;;
73100;SDS011;61288;53.446;-2.266;2023-05-10T02:57:48;14.55;;;3.38;;
73100;SDS011;61288;53.446;-2.266;2023-05-10T03:00:17;11.73;;;3.40;;
73100;SDS011;61288;53.446;-2.266;2023-05-10T03:02:43;10.73;;;3.20;;
73100;SDS011;61288;53.446;-2.266;2023-05-10T03:05:09;10.93;;;3.25;;
73100;SDS011;61288;53.446;-2.266;2023-05-10T03:07:35;11.52;;;3.13;;
73100;SDS011;61288;53.446;-2.266;2023-05-10T03:10:00;11.25;;;3.15;;
73100;SDS011;61288;53.446;-2.266;2023-05-10T03:12:38;12.23;;;3.80;;
73100;SDS011;61288;53.446;-2.266;2023-05-10T03:15:30;14.50;;;3.35;;
73100;SDS011;61288;53.446;-2.266;2023-05-10T03:18:18;13.25;;;3.25;;
73100;SDS011;61288;53.446;-2.266;2023-05-10T03:20:48;9.75;;;3.10;;
73100;SDS011;61288;53.446;-2.266;2023-05-10T03:25:56;14.10;;;3.15;;
73100;SDS011;61288;53.446;-2.266;2023-05-10T03:28:24;10.27;;;3.28;;
73100;SDS011;61288;53.446;-2.266;2023-05-10T03:30:51;14.30;;;3.17;;
73100;SDS011;61288;53.446;-2.266;2023-05-10T03:33:18;11.30;;;3.22;;
73100;SDS011;61288;53.446;-2.266;2023-05-10T03:35:43;10.85;;;2.97;;
73100;SDS011;61288;53.446;-2.266;2023-05-10T03:38:11;12.52;;;3.42;;
73100;SDS011;61288;53.446;-2.266;2023-05-10T03:40:37;10.45;;;3.05;;
73100;SDS011;61288;53.446;-2.266;2023-05-10T03:43:02;12.57;;;3.45;;
73100;SDS011;61288;53.446;-2.266;2023-05-10T03:45:28;10.23;;;2.83;;
73100;SDS011;61288;53.446;-2.266;2023-05-10T03:47:53;8.10;;;2.45;;
73100;SDS011;61288;53.446;-2.266;2023-05-10T03:50:19;15.40;;;3.83;;
73100;SDS011;61288;53.446;-2.266;2023-05-10T03:52:45;13.82;;;3.53;;
73100;SDS011;61288;53.446;-2.266;2023-05-10T03:55:11;12.23;;;3.60;;
73100;SDS011;61288;53.446;-2.266;2023-05-10T03:57:36;12.85;;;3.45;;
73100;SDS011;61288;53.446;-2.266;2023-05-10T04:00:03;11.45;;;3.30;;
73100;SDS011;61288;53.446;-2.266;2023-05-10T04:02:29;12.43;;;3.28;;
73100;SDS011;61288;53.446;-2.266;2023-05-10T04:04:55;15.38;;;3.83;;
73100;SDS011;61288;53.446;-2.266;2023-05-10T04:07:22;12.43;;;3.42;;
73100;SDS011;61288;53.446;-2.266;2023-05-10T04:09:47;10.80;;;3.38;;
73100;SDS011;61288;53.446;-2.266;2023-05-10T04:12:13;16.05;;;3.67;;
73100;SDS011;61288;53.446;-2.266;2023-05-10T04:14:38;16.13;;;3.80;;
73100;SDS011;61288;53.446;-2.266;2023-05-10T04:17:04;13.38;;;3.40;;
73100;SDS011;61288;53.446;-2.266;2023-05-10T04:19:30;11.80;;;3.63;;
73100;SDS011;61288;53.446;-2.266;2023-05-10T04:21:57;16.35;;;4.47;;
73100;SDS011;61288;53.446;-2.266;2023-05-10T04:24:24;15.15;;;4.35;;
73100;SDS011;61288;53.446;-2.266;2023-05-10T04:26:50;15.00;;;4.18;;
73100;SDS011;61288;53.446;-2.266;2023-05-10T04:29:17;12.82;;;3.75;;
73100;SDS011;61288;53.446;-2.266;2023-05-10T04:31:42;16.17;;;4.05;;
73100;SDS011;61288;53.446;-2.266;2023-05-10T04:34:08;15.43;;;3.97;;
73100;SDS011;61288;53.446;-2.266;2023-05-10T04:36:34;15.50;;;3.50;;
73100;SDS011;61288;53.446;-2.266;2023-05-10T04:39:02;11.73;;;3.65;;
73100;SDS011;61288;53.446;-2.266;2023-05-10T04:41:28;13.52;;;3.80;;
73100;SDS011;61288;53.446;-2.266;2023-05-10T04:43:54;17.63;;;3.92;;
73100;SDS011;61288;53.446;-2.266;2023-05-10T04:46:20;14.68;;;3.33;;
73100;SDS011;61288;53.446;-2.266;2023-05-10T04:48:45;18.88;;;4.72;;
73100;SDS011;61288;53.446;-2.266;2023-05-10T04:51:11;13.82;;;3.60;;
73100;SDS011;61288;53.446;-2.266;2023-05-10T04:53:36;16.52;;;3.90;;
73100;SDS011;61288;53.446;-2.266;2023-05-10T04:56:02;17.10;;;4.85;;
73100;SDS011;61288;53.446;-2.266;2023-05-10T04:58:28;12.82;;;3.60;;
73100;SDS011;61288;53.446;-2.266;2023-05-10T05:00:53;14.90;;;3.85;;
73100;SDS011;61288;53.446;-2.266;2023-05-10T05:03:19;14.90;;;3.83;;
73100;SDS011;61288;53.446;-2.266;2023-05-10T05:05:45;15.63;;;3.92;;
73100;SDS011;61288;53.446;-2.266;2023-05-10T05:08:10;12.73;;;3.50;;
73100;SDS011;61288;53.446;-2.266;2023-05-10T05:10:36;15.07;;;4.13;;
73100;SDS011;61288;53.446;-2.266;2023-05-10T05:13:01;15.38;;;4.13;;
73100;SDS011;61288;53.446;-2.266;2023-05-10T05:15:27;18.42;;;4.65;;
73100;SDS011;61288;53.446;-2.266;2023-05-10T05:17:52;16.05;;;4.05;;
73100;SDS011;61288;53.446;-2.266;2023-05-10T05:20:18;13.82;;;3.70;;
73100;SDS011;61288;53.446;-2.266;2023-05-10T05:22:44;10.55;;;3.17;;
73100;SDS011;61288;53.446;-2.266;2023-05-10T05:25:10;16.83;;;3.72;;
73100;SDS011;61288;53.446;-2.266;2023-05-10T05:27:36;13.23;;;4.18;;
73100;SDS011;61288;53.446;-2.266;2023-05-10T05:30:02;13.00;;;3.70;;
73100;SDS011;61288;53.446;-2.266;2023-05-10T05:32:29;12.48;;;3.42;;
73100;SDS011;61288;53.446;-2.266;2023-05-10T05:34:54;14.35;;;4.13;;
73100;SDS011;61288;53.446;-2.266;2023-05-10T05:37:20;13.57;;;3.60;;
73100;SDS011;61288;53.446;-2.266;2023-05-10T05:39:49;12.90;;;3.80;;
73100;SDS011;61288;53.446;-2.266;2023-05-10T05:42:15;16.70;;;4.63;;
73100;SDS011;61288;53.446;-2.266;2023-05-10T05:44:42;17.80;;;4.32;;
73100;SDS011;61288;53.446;-2.266;2023-05-10T05:47:08;13.40;;;4.50;;
73100;SDS011;61288;53.446;-2.266;2023-05-10T05:49:34;17.95;;;4.72;;
73100;SDS011;61288;53.446;-2.266;2023-05-10T05:52:00;15.02;;;4.43;;
73100;SDS011;61288;53.446;-2.266;2023-05-10T05:54:26;17.00;;;4.53;;
73100;SDS011;61288;53.446;-2.266;2023-05-10T05:56:56;14.40;;;4.30;;
73100;SDS011;61288;53.446;-2.266;2023-05-10T05:59:22;16.80;;;4.68;;
73100;SDS011;61288;53.446;-2.266;2023-05-10T06:01:48;16.15;;;4.35;;
73100;SDS011;61288;53.446;-2.266;2023-05-10T06:04:14;17.52;;;4.78;;
73100;SDS011;61288;53.446;-2.266;2023-05-10T06:06:39;18.10;;;4.25;;
73100;SDS011;61288;53.446;-2.266;2023-05-10T06:09:05;15.43;;;4.40;;
73100;SDS011;61288;53.446;-2.266;2023-05-10T06:11:30;18.40;;;4.90;;
73100;SDS011;61288;53.446;-2.266;2023-05-10T06:13:57;17.50;;;4.72;;
73100;SDS011;61288;53.446;-2.266;2023-05-10T06:16:26;17.50;;;4.57;;
73100;SDS011;61288;53.446;-2.266;2023-05-10T06:18:52;21.35;;;4.80;;
73100;SDS011;61288;53.446;-2.266;2023-05-10T06:21:18;15.93;;;4.78;;
73100;SDS011;61288;53.446;-2.266;2023-05-10T06:23:44;15.77;;;4.40;;
73100;SDS011;61288;53.446;-2.266;2023-05-10T06:26:09;15.15;;;4.80;;
73100;SDS011;61288;53.446;-2.266;2023-05-10T06:28:35;19.55;;;5.00;;
73100;SDS011;61288;53.446;-2.266;2023-05-10T06:31:03;18.95;;;4.10;;
73100;SDS011;61288;53.446;-2.266;2023-05-10T06:33:30;14.57;;;4.30;;
73100;SDS011;61288;53.446;-2.266;2023-05-10T06:35:56;14.88;;;4.07;;
73100;SDS011;61288;53.446;-2.266;2023-05-10T06:38:22;15.27;;;4.85;;
73100;SDS011;61288;53.446;-2.266;2023-05-10T06:40:47;10.02;;;3.53;;
73100;SDS011;61288;53.446;-2.266;2023-05-10T06:43:13;13.95;;;3.63;;
73100;SDS011;61288;53.446;-2.266;2023-05-10T06:45:38;15.15;;;3.42;;
73100;SDS011;61288;53.446;-2.266;2023-05-10T06:48:04;14.98;;;3.38;;
73100;SDS011;61288;53.446;-2.266;2023-05-10T06:50:30;12.25;;;3.22;;
73100;SDS011;61288;53.446;-2.266;2023-05-10T06:52:55;13.63;;;3.67;;
73100;SDS011;61288;53.446;-2.266;2023-05-10T06:55:21;10.75;;;3.30;;
73100;SDS011;61288;53.446;-2.266;2023-05-10T06:57:46;13.23;;;3.85;;
73100;SDS011;61288;53.446;-2.266;2023-05-10T07:00:13;11.18;;;3.53;;
73100;SDS011;61288;53.446;-2.266;2023-05-10T07:02:39;11.50;;;3.00;;
73100;SDS011;61288;53.446;-2.266;2023-05-10T07:05:04;14.93;;;3.50;;
73100;SDS011;61288;53.446;-2.266;2023-05-10T07:07:30;13.18;;;3.08;;
73100;SDS011;61288;53.446;-2.266;2023-05-10T07:09:56;10.77;;;3.10;;
73100;SDS011;61288;53.446;-2.266;2023-05-10T07:12:22;13.02;;;4.03;;
73100;SDS011;61288;53.446;-2.266;2023-05-10T07:14:48;9.65;;;3.08;;
73100;SDS011;61288;53.446;-2.266;2023-05-10T07:17:14;15.27;;;3.35;;
73100;SDS011;61288;53.446;-2.266;2023-05-10T07:19:40;13.77;;;3.45;;
73100;SDS011;61288;53.446;-2.266;2023-05-10T07:22:05;10.30;;;2.55;;
73100;SDS011;61288;53.446;-2.266;2023-05-10T07:24:31;11.93;;;2.55;;
73100;SDS011;61288;53.446;-2.266;2023-05-10T07:26:58;12.57;;;4.03;;
73100;SDS011;61288;53.446;-2.266;2023-05-10T07:29:23;11.13;;;2.70;;
73100;SDS011;61288;53.446;-2.266;2023-05-10T07:31:49;14.95;;;3.33;;
73100;SDS011;61288;53.446;-2.266;2023-05-10T07:34:15;12.55;;;2.65;;
73100;SDS011;61288;53.446;-2.266;2023-05-10T07:36:40;12.70;;;2.97;;
73100;SDS011;61288;53.446;-2.266;2023-05-10T07:39:06;15.77;;;3.15;;
73100;SDS011;61288;53.446;-2.266;2023-05-10T07:41:31;12.55;;;2.97;;
73100;SDS011;61288;53.446;-2.266;2023-05-10T07:43:57;9.98;;;3.00;;
73100;SDS011;61288;53.446;-2.266;2023-05-10T07:46:23;12.07;;;2.92;;
73100;SDS011;61288;53.446;-2.266;2023-05-10T07:48:48;11.82;;;3.22;;
73100;SDS011;61288;53.446;-2.266;2023-05-10T07:51:14;9.40;;;2.90;;
73100;SDS011;61288;53.446;-2.266;2023-05-10T07:53:39;12.43;;;3.20;;
73100;SDS011;61288;53.446;-2.266;2023-05-10T07:58:45;11.50;;;2.38;;
73100;SDS011;61288;53.446;-2.266;2023-05-10T08:01:11;8.88;;;2.47;;
73100;SDS011;61288;53.446;-2.266;2023-05-10T08:03:36;7.35;;;2.30;;
73100;SDS011;61288;53.446;-2.266;2023-05-10T08:06:02;8.77;;;2.50;;
73100;SDS011;61288;53.446;-2.266;2023-05-10T08:08:28;12.07;;;2.45;;
73100;SDS011;61288;53.446;-2.266;2023-05-10T08:10:54;9.38;;;2.25;;
73100;SDS011;61288;53.446;-2.266;2023-05-10T08:13:19;9.85;;;2.40;;
73100;SDS011;61288;53.446;-2.266;2023-05-10T08:15:45;9.40;;;2.35;;
73100;SDS011;61288;53.446;-2.266;2023-05-10T08:18:11;12.60;;;2.50;;
73100;SDS011;61288;53.446;-2.266;2023-05-10T08:20:37;13.75;;;2.30;;
73100;SDS011;61288;53.446;-2.266;2023-05-10T08:23:03;7.22;;;2.10;;
73100;SDS011;61288;53.446;-2.266;2023-05-10T08:25:28;10.13;;;2.55;;
73100;SDS011;61288;53.446;-2.266;2023-05-10T08:27:54;15.93;;;3.00;;
73100;SDS011;61288;53.446;-2.266;2023-05-10T08:30:20;19.30;;;3.00;;
73100;SDS011;61288;53.446;-2.266;2023-05-10T08:32:46;12.02;;;2.70;;
73100;SDS011;61288;53.446;-2.266;2023-05-10T08:35:12;14.30;;;3.22;;
73100;SDS011;61288;53.446;-2.266;2023-05-10T08:37:39;12.65;;;2.95;;
73100;SDS011;61288;53.446;-2.266;2023-05-10T08:40:05;12.48;;;3.15;;
73100;SDS011;61288;53.446;-2.266;2023-05-10T08:42:31;9.45;;;2.90;;
73100;SDS011;61288;53.446;-2.266;2023-05-10T08:45:00;14.90;;;2.95;;
73100;SDS011;61288;53.446;-2.266;2023-05-10T08:47:27;14.18;;;3.00;;
73100;SDS011;61288;53.446;-2.266;2023-05-10T08:49:54;10.23;;;2.58;;
73100;SDS011;61288;53.446;-2.266;2023-05-10T08:52:20;14.90;;;2.85;;
73100;SDS011;61288;53.446;-2.266;2023-05-10T08:54:50;8.68;;;2.53;;
73100;SDS011;61288;53.446;-2.266;2023-05-10T08:57:16;11.95;;;2.78;;
73100;SDS011;61288;53.446;-2.266;2023-05-10T08:59:42;10.27;;;2.70;;
73100;SDS011;61288;53.446;-2.266;2023-05-10T09:02:09;6.47;;;2.22;;
73100;SDS011;61288;53.446;-2.266;2023-05-10T09:04:36;14.52;;;2.67;;
73100;SDS011;61288;53.446;-2.266;2023-05-10T09:07:02;10.30;;;2.60;;
73100;SDS011;61288;53.446;-2.266;2023-05-10T09:09:27;7.45;;;2.45;;
73100;SDS011;61288;53.446;-2.266;2023-05-10T09:11:53;9.52;;;2.90;;
73100;SDS011;61288;53.446;-2.266;2023-05-10T09:14:19;8.18;;;2.72;;
73100;SDS011;61288;53.446;-2.266;2023-05-10T09:16:45;9.32;;;2.45;;
73100;SDS011;61288;53.446;-2.266;2023-05-10T09:19:12;12.68;;;2.60;;
73100;SDS011;61288;53.446;-2.266;2023-05-10T09:21:38;17.67;;;3.05;;
73100;SDS011;61288;53.446;-2.266;2023-05-10T09:24:04;10.55;;;2.78;;
73100;SDS011;61288;53.446;-2.266;2023-05-10T09:26:30;16.58;;;3.55;;
73100;SDS011;61288;53.446;-2.266;2023-05-10T09:28:57;10.50;;;3.17;;
73100;SDS011;61288;53.446;-2.266;2023-05-10T09:31:24;8.52;;;3.22;;
73100;SDS011;61288;53.446;-2.266;2023-05-10T09:34:07;9.68;;;3.05;;
73100;SDS011;61288;53.446;-2.266;2023-05-10T09:36:33;12.13;;;3.20;;
73100;SDS011;61288;53.446;-2.266;2023-05-10T09:38:58;14.52;;;3.65;;
73100;SDS011;61288;53.446;-2.266;2023-05-10T09:41:25;10.77;;;3.28;;
73100;SDS011;61288;53.446;-2.266;2023-05-10T09:43:50;10.75;;;3.10;;
73100;SDS011;61288;53.446;-2.266;2023-05-10T09:46:22;6.40;;;2.53;;
73100;SDS011;61288;53.446;-2.266;2023-05-10T09:48:48;12.63;;;2.53;;
73100;SDS011;61288;53.446;-2.266;2023-05-10T09:51:23;4.97;;;1.70;;
73100;SDS011;61288;53.446;-2.266;2023-05-10T09:56:49;5.75;;;1.60;;
73100;SDS011;61288;53.446;-2.266;2023-05-10T09:59:14;6.40;;;1.60;;
73100;SDS011;61288;53.446;-2.266;2023-05-10T10:01:40;5.88;;;1.90;;
73100;SDS011;61288;53.446;-2.266;2023-05-10T10:04:06;8.30;;;1.95;;
73100;SDS011;61288;53.446;-2.266;2023-05-10T10:06:37;6.63;;;2.10;;
73100;SDS011;61288;53.446;-2.266;2023-05-10T10:09:03;5.88;;;2.28;;
73100;SDS011;61288;53.446;-2.266;2023-05-10T10:11:30;7.30;;;2.00;;
73100;SDS011;61288;53.446;-2.266;2023-05-10T10:13:56;7.72;;;2.03;;
73100;SDS011;61288;53.446;-2.266;2023-05-10T10:16:21;8.27;;;2.42;;
73100;SDS011;61288;53.446;-2.266;2023-05-10T10:18:49;6.85;;;2.25;;
73100;SDS011;61288;53.446;-2.266;2023-05-10T10:21:15;7.00;;;2.65;;
73100;SDS011;61288;53.446;-2.266;2023-05-10T10:23:41;7.60;;;2.10;;
73100;SDS011;61288;53.446;-2.266;2023-05-10T10:26:08;8.35;;;2.58;;
73100;SDS011;61288;53.446;-2.266;2023-05-10T10:31:33;6.35;;;2.13;;
73100;SDS011;61288;53.446;-2.266;2023-05-10T10:34:25;6.95;;;2.30;;
73100;SDS011;61288;53.446;-2.266;2023-05-10T10:39:21;7.55;;;2.20;;
73100;SDS011;61288;53.446;-2.266;2023-05-10T10:41:53;9.57;;;2.38;;
73100;SDS011;61288;53.446;-2.266;2023-05-10T10:44:24;6.80;;;2.35;;
73100;SDS011;61288;53.446;-2.266;2023-05-10T10:57:31;5.32;;;1.48;;
73100;SDS011;61288;53.446;-2.266;2023-05-10T11:05:25;5.50;;;1.50;;
73100;SDS011;61288;53.446;-2.266;2023-05-10T11:08:30;5.38;;;1.50;;
73100;SDS011;61288;53.446;-2.266;2023-05-10T11:13:27;5.55;;;1.83;;
73100;SDS011;61288;53.446;-2.266;2023-05-10T11:15:56;5.53;;;1.70;;
73100;SDS011;61288;53.446;-2.266;2023-05-10T11:18:23;7.95;;;2.03;;
73100;SDS011;61288;53.446;-2.266;2023-05-10T11:20:56;4.85;;;1.83;;
73100;SDS011;61288;53.446;-2.266;2023-05-10T11:23:48;5.55;;;1.77;;
73100;SDS011;61288;53.446;-2.266;2023-05-10T11:26:24;11.57;;;2.28;;
73100;SDS011;61288;53.446;-2.266;2023-05-10T11:28:52;10.30;;;2.22;;
73100;SDS011;61288;53.446;-2.266;2023-05-10T11:31:22;7.05;;;2.00;;
73100;SDS011;61288;53.446;-2.266;2023-05-10T11:33:58;6.18;;;1.92;;
73100;SDS011;61288;53.446;-2.266;2023-05-10T11:36:32;6.97;;;1.80;;
73100;SDS011;61288;53.446;-2.266;2023-05-10T11:38:59;7.20;;;2.03;;
73100;SDS011;61288;53.446;-2.266;2023-05-10T11:41:26;11.82;;;2.40;;
73100;SDS011;61288;53.446;-2.266;2023-05-10T11:43:53;8.85;;;2.00;;
73100;SDS011;61288;53.446;-2.266;2023-05-10T11:46:21;6.00;;;2.03;;
73100;SDS011;61288;53.446;-2.266;2023-05-10T11:48:49;5.68;;;2.00;;
73100;SDS011;61288;53.446;-2.266;2023-05-10T11:51:19;4.18;;;1.48;;
73100;SDS011;61288;53.446;-2.266;2023-05-10T11:53:53;7.18;;;1.33;;
73100;SDS011;61288;53.446;-2.266;2023-05-10T11:56:20;6.32;;;1.50;;
73100;SDS011;61288;53.446;-2.266;2023-05-10T11:58:52;6.20;;;1.50;;
73100;SDS011;61288;53.446;-2.266;2023-05-10T12:01:22;8.02;;;1.50;;
73100;SDS011;61288;53.446;-2.266;2023-05-10T12:03:49;4.20;;;1.50;;
73100;SDS011;61288;53.446;-2.266;2023-05-10T12:06:16;8.00;;;1.40;;
73100;SDS011;61288;53.446;-2.266;2023-05-10T12:08:46;6.57;;;1.50;;
73100;SDS011;61288;53.446;-2.266;2023-05-10T12:11:14;6.03;;;1.50;;
73100;SDS011;61288;53.446;-2.266;2023-05-10T12:13:41;4.13;;;1.30;;
73100;SDS011;61288;53.446;-2.266;2023-05-10T12:16:17;4.72;;;2.17;;
73100;SDS011;61288;53.446;-2.266;2023-05-10T12:18:44;6.95;;;1.70;;
73100;SDS011;61288;53.446;-2.266;2023-05-10T12:21:11;4.18;;;1.58;;
73100;SDS011;61288;53.446;-2.266;2023-05-10T12:23:37;5.82;;;1.63;;
73100;SDS011;61288;53.446;-2.266;2023-05-10T12:26:03;8.43;;;1.70;;
73100;SDS011;61288;53.446;-2.266;2023-05-10T12:28:30;4.43;;;1.60;;
73100;SDS011;61288;53.446;-2.266;2023-05-10T12:30:57;9.75;;;2.25;;
73100;SDS011;61288;53.446;-2.266;2023-05-10T12:33:23;8.55;;;2.13;;
73100;SDS011;61288;53.446;-2.266;2023-05-10T12:35:52;7.03;;;1.85;;
73100;SDS011;61288;53.446;-2.266;2023-05-10T12:38:35;6.25;;;1.70;;
73100;SDS011;61288;53.446;-2.266;2023-05-10T12:41:04;6.15;;;1.65;;
73100;SDS011;61288;53.446;-2.266;2023-05-10T12:43:32;7.25;;;1.52;;
73100;SDS011;61288;53.446;-2.266;2023-05-10T12:45:58;4.75;;;1.52;;
73100;SDS011;61288;53.446;-2.266;2023-05-10T12:48:29;6.68;;;1.52;;
73100;SDS011;61288;53.446;-2.266;2023-05-10T12:50:56;5.18;;;1.42;;
73100;SDS011;61288;53.446;-2.266;2023-05-10T12:53:21;5.93;;;1.70;;
73100;SDS011;61288;53.446;-2.266;2023-05-10T12:55:47;5.95;;;1.42;;
73100;SDS011;61288;53.446;-2.266;2023-05-10T12:58:12;4.53;;;1.40;;
73100;SDS011;61288;53.446;-2.266;2023-05-10T13:00:37;4.63;;;1.42;;
73100;SDS011;61288;53.446;-2.266;2023-05-10T13:03:04;4.30;;;1.50;;
73100;SDS011;61288;53.446;-2.266;2023-05-10T13:05:33;4.70;;;1.58;;
73100;SDS011;61288;53.446;-2.266;2023-05-10T13:07:58;4.63;;;1.48;;
73100;SDS011;61288;53.446;-2.266;2023-05-10T13:10:24;6.35;;;1.52;;
73100;SDS011;61288;53.446;-2.266;2023-05-10T13:12:50;4.35;;;1.70;;
73100;SDS011;61288;53.446;-2.266;2023-05-10T13:15:16;3.75;;;1.20;;
73100;SDS011;61288;53.446;-2.266;2023-05-10T13:17:41;5.82;;;1.50;;
73100;SDS011;61288;53.446;-2.266;2023-05-10T13:20:07;4.03;;;1.50;;
73100;SDS011;61288;53.446;-2.266;2023-05-10T13:22:34;7.25;;;1.38;;
73100;SDS011;61288;53.446;-2.266;2023-05-10T13:25:00;4.68;;;1.60;;
73100;SDS011;61288;53.446;-2.266;2023-05-10T13:27:26;6.05;;;1.73;;
73100;SDS011;61288;53.446;-2.266;2023-05-10T13:29:52;5.63;;;1.80;;
73100;SDS011;61288;53.446;-2.266;2023-05-10T13:32:17;7.38;;;1.80;;
73100;SDS011;61288;53.446;-2.266;2023-05-10T13:34:43;6.60;;;1.70;;
73100;SDS011;61288;53.446;-2.266;2023-05-10T13:37:09;9.82;;;1.90;;
73100;SDS011;61288;53.446;-2.266;2023-05-10T13:39:34;6.18;;;1.60;;
73100;SDS011;61288;53.446;-2.266;2023-05-10T13:42:02;6.18;;;1.70;;
73100;SDS011;61288;53.446;-2.266;2023-05-10T13:44:28;7.88;;;1.65;;
73100;SDS011;61288;53.446;-2.266;2023-05-10T13:46:54;7.95;;;1.75;;
73100;SDS011;61288;53.446;-2.266;2023-05-10T13:49:20;8.75;;;1.83;;
73100;SDS011;61288;53.446;-2.266;2023-05-10T13:51:46;4.68;;;1.67;;
73100;SDS011;61288;53.446;-2.266;2023-05-10T13:54:12;7.13;;;1.67;;
73100;SDS011;61288;53.446;-2.266;2023-05-10T13:56:38;7.97;;;1.77;;
73100;SDS011;61288;53.446;-2.266;2023-05-10T13:59:03;6.90;;;1.70;;
73100;SDS011;61288;53.446;-2.266;2023-05-10T14:01:28;6.03;;;1.80;;
73100;SDS011;61288;53.446;-2.266;2023-05-10T14:03:54;7.10;;;2.00;;
73100;SDS011;61288;53.446;-2.266;2023-05-10T14:06:19;10.80;;;1.92;;
73100;SDS011;61288;53.446;-2.266;2023-05-10T14:08:45;4.97;;;1.92;;
73100;SDS011;61288;53.446;-2.266;2023-05-10T14:11:11;10.55;;;1.98;;
73100;SDS011;61288;53.446;-2.266;2023-05-10T14:13:36;6.30;;;1.70;;
73100;SDS011;61288;53.446;-2.266;2023-05-10T14:16:02;7.78;;;2.35;;
73100;SDS011;61288;53.446;-2.266;2023-05-10T14:18:28;7.35;;;1.95;;
73100;SDS011;61288;53.446;-2.266;2023-05-10T14:20:53;6.90;;;2.05;;
73100;SDS011;61288;53.446;-2.266;2023-05-10T14:23:19;9.30;;;2.20;;
73100;SDS011;61288;53.446;-2.266;2023-05-10T14:25:51;6.43;;;1.95;;
73100;SDS011;61288;53.446;-2.266;2023-05-10T14:28:17;6.53;;;2.05;;
73100;SDS011;61288;53.446;-2.266;2023-05-10T14:30:43;8.27;;;2.15;;
73100;SDS011;61288;53.446;-2.266;2023-05-10T14:33:09;7.75;;;2.22;;
73100;SDS011;61288;53.446;-2.266;2023-05-10T14:35:35;9.70;;;2.30;;
73100;SDS011;61288;53.446;-2.266;2023-05-10T14:38:01;7.97;;;2.03;;
73100;SDS011;61288;53.446;-2.266;2023-05-10T14:40:28;6.18;;;1.70;;
73100;SDS011;61288;53.446;-2.266;2023-05-10T14:42:53;5.60;;;1.83;;
73100;SDS011;61288;53.446;-2.266;2023-05-10T14:45:19;6.53;;;1.98;;
73100;SDS011;61288;53.446;-2.266;2023-05-10T14:47:46;5.57;;;1.88;;
73100;SDS011;61288;53.446;-2.266;2023-05-10T14:50:11;6.95;;;1.90;;
73100;SDS011;61288;53.446;-2.266;2023-05-10T14:52:36;7.00;;;1.58;;
73100;SDS011;61288;53.446;-2.266;2023-05-10T14:55:02;6.63;;;1.85;;
73100;SDS011;61288;53.446;-2.266;2023-05-10T14:57:28;4.65;;;1.70;;
73100;SDS011;61288;53.446;-2.266;2023-05-10T14:59:55;4.00;;;1.45;;
73100;SDS011;61288;53.446;-2.266;2023-05-10T15:02:21;5.13;;;1.27;;
73100;SDS011;61288;53.446;-2.266;2023-05-10T15:04:46;2.60;;;1.10;;
73100;SDS011;61288;53.446;-2.266;2023-05-10T15:07:12;5.53;;;1.42;;
73100;SDS011;61288;53.446;-2.266;2023-05-10T15:09:39;5.75;;;1.40;;